createdAt,value
2019-05-14T00:01:03.312Z,1.70
2019-05-14T00:03:33.359Z,1.70
2019-05-14T00:06:02.662Z,1.40
2019-05-14T00:08:32.023Z,1.63
2019-05-14T00:11:01.628Z,1.00
2019-05-14T00:13:32.199Z,1.47
2019-05-14T00:16:04.146Z,1.20
2019-05-14T00:18:33.824Z,1.63
2019-05-14T00:21:03.523Z,1.30
2019-05-14T00:23:32.802Z,1.60
2019-05-14T00:26:02.500Z,1.10
2019-05-14T00:28:31.990Z,1.90
2019-05-14T00:31:02.841Z,1.90
2019-05-14T00:33:35.576Z,1.43
2019-05-14T00:36:04.877Z,1.60
2019-05-14T00:38:36.271Z,1.50
2019-05-14T00:41:05.631Z,2.30
2019-05-14T00:43:35.563Z,1.67
2019-05-14T00:46:05.695Z,1.50
2019-05-14T00:48:37.726Z,1.30
2019-05-14T00:51:07.567Z,1.40
2019-05-14T00:53:36.942Z,1.70
2019-05-14T00:56:06.531Z,1.57
2019-05-14T00:58:35.826Z,1.47
2019-05-14T01:01:05.115Z,1.50
2019-05-14T01:03:34.447Z,1.40
2019-05-14T01:06:04.141Z,1.50
2019-05-14T01:08:33.469Z,1.70
2019-05-14T01:11:03.246Z,1.60
2019-05-14T01:13:35.935Z,1.83
2019-05-14T01:16:05.219Z,1.67
2019-05-14T01:18:34.858Z,1.37
2019-05-14T01:21:04.550Z,1.00
2019-05-14T01:23:34.589Z,1.83
2019-05-14T01:26:03.857Z,1.37
2019-05-14T01:28:33.919Z,1.33
2019-05-14T01:31:03.405Z,2.30
2019-05-14T01:33:32.718Z,1.63
2019-05-14T01:36:02.335Z,1.00
2019-05-14T01:38:32.332Z,1.33
2019-05-14T01:41:02.099Z,1.13
2019-05-14T01:43:31.752Z,1.67
2019-05-14T01:46:02.081Z,1.63
2019-05-14T01:48:31.941Z,2.70
2019-05-14T01:51:01.852Z,1.97
2019-05-14T01:53:31.554Z,1.63
2019-05-14T01:56:01.612Z,1.23
2019-05-14T01:58:31.574Z,1.40
2019-05-14T02:01:02.025Z,1.63
2019-05-14T02:03:32.353Z,1.63
2019-05-14T02:06:02.120Z,1.30
2019-05-14T02:08:32.317Z,1.30
2019-05-14T02:11:01.971Z,1.53
2019-05-14T02:13:32.347Z,1.20
2019-05-14T02:16:02.746Z,1.73
2019-05-14T02:18:33.023Z,2.00
2019-05-14T02:21:02.331Z,1.23
2019-05-14T02:23:32.491Z,1.50
2019-05-14T02:26:02.686Z,1.43
2019-05-14T02:28:32.570Z,1.60
2019-05-14T02:31:03.673Z,1.50
2019-05-14T02:33:33.632Z,1.00
2019-05-14T02:36:03.242Z,1.30
2019-05-14T02:38:32.780Z,1.40
2019-05-14T02:41:04.375Z,1.40
2019-05-14T02:43:33.685Z,1.30
2019-05-14T02:46:11.758Z,1.47
2019-05-14T02:48:34.540Z,1.40
2019-05-14T02:51:03.815Z,1.43
2019-05-14T02:53:33.734Z,1.20
2019-05-14T02:56:03.443Z,1.80
2019-05-14T02:58:33.243Z,1.27
2019-05-14T03:01:02.923Z,1.20
2019-05-14T03:03:32.444Z,1.60
2019-05-14T03:06:02.550Z,1.40
2019-05-14T03:08:32.880Z,1.27
2019-05-14T03:11:02.572Z,1.67
2019-05-14T03:13:32.843Z,1.40
2019-05-14T03:16:21.094Z,1.43
2019-05-14T03:18:33.158Z,1.87
2019-05-14T03:21:03.201Z,1.80
2019-05-14T03:23:32.469Z,1.83
2019-05-14T03:26:02.230Z,1.47
2019-05-14T03:28:31.589Z,1.63
2019-05-14T03:31:04.224Z,1.60
2019-05-14T03:33:34.753Z,1.47
2019-05-14T03:36:09.372Z,1.57
2019-05-14T03:38:35.514Z,1.97
2019-05-14T03:41:04.913Z,1.67
2019-05-14T03:43:34.959Z,1.53
2019-05-14T03:46:04.577Z,1.53
2019-05-14T03:48:35.975Z,1.40
2019-05-14T03:51:08.850Z,1.83
2019-05-14T03:53:55.234Z,2.00
2019-05-14T03:56:10.348Z,1.53
2019-05-14T03:58:39.742Z,1.70
2019-05-14T04:01:10.968Z,2.07
2019-05-14T04:03:40.614Z,1.70
2019-05-14T04:06:10.269Z,2.20
2019-05-14T04:08:42.924Z,1.80
2019-05-14T04:11:15.083Z,1.40
2019-05-14T04:13:49.424Z,1.90
2019-05-14T04:16:20.660Z,1.60
2019-05-14T04:18:52.680Z,1.57
2019-05-14T04:21:22.478Z,1.53
2019-05-14T04:23:52.138Z,2.10
2019-05-14T04:26:23.752Z,1.97
2019-05-14T04:28:54.683Z,1.47
2019-05-14T04:31:29.812Z,2.07
2019-05-14T04:34:02.082Z,2.57
2019-05-14T04:36:31.368Z,1.90
2019-05-14T04:39:00.897Z,1.63
2019-05-14T04:41:30.750Z,2.43
2019-05-14T04:44:00.363Z,1.80
2019-05-14T04:46:30.513Z,2.40
2019-05-14T04:48:59.827Z,1.57
2019-05-14T04:51:30.191Z,2.00
2019-05-14T04:54:00.120Z,1.80
2019-05-14T04:56:30.366Z,1.80
2019-05-14T04:59:00.591Z,2.23
2019-05-14T05:01:32.033Z,2.10
2019-05-14T05:04:01.668Z,2.03
2019-05-14T05:06:31.403Z,1.80
2019-05-14T05:09:02.260Z,1.87
2019-05-14T05:11:31.899Z,2.23
2019-05-14T05:14:01.243Z,2.40
2019-05-14T05:16:31.794Z,2.43
2019-05-14T05:19:01.507Z,2.07
2019-05-14T05:21:31.161Z,2.00
2019-05-14T05:24:00.926Z,3.17
2019-05-14T05:26:30.195Z,2.30
2019-05-14T05:29:05.863Z,2.47
2019-05-14T05:31:30.917Z,2.47
2019-05-14T05:34:08.762Z,2.83
2019-05-14T05:36:42.807Z,2.90
2019-05-14T05:39:12.148Z,2.60
2019-05-14T05:41:41.787Z,3.17
2019-05-14T05:44:11.895Z,3.43
2019-05-14T05:46:43.349Z,2.37
2019-05-14T05:49:13.468Z,2.60
2019-05-14T05:51:42.867Z,2.87
2019-05-14T05:54:12.557Z,3.17
2019-05-14T05:56:42.196Z,2.80
2019-05-14T05:59:11.484Z,3.40
2019-05-14T06:01:50.247Z,3.90
2019-05-14T06:04:44.426Z,2.93
2019-05-14T06:07:14.068Z,4.33
2019-05-14T06:09:43.408Z,3.00
2019-05-14T06:12:12.728Z,3.47
2019-05-14T06:14:42.670Z,3.07
2019-05-14T06:17:11.975Z,3.17
2019-05-14T06:19:41.291Z,2.57
2019-05-14T06:22:11.297Z,2.60
2019-05-14T06:24:40.700Z,3.13
2019-05-14T06:27:13.351Z,3.00
2019-05-14T06:29:42.694Z,4.27
2019-05-14T06:32:12.411Z,2.70
2019-05-14T06:34:41.695Z,3.30
2019-05-14T06:37:11.005Z,2.90
2019-05-14T06:39:41.486Z,2.67
2019-05-14T06:42:10.878Z,3.40
2019-05-14T06:44:40.245Z,2.87
2019-05-14T06:47:09.923Z,2.70
2019-05-14T06:49:39.579Z,3.13
2019-05-14T06:52:09.213Z,2.53
2019-05-14T06:54:38.989Z,2.90
2019-05-14T06:57:08.987Z,2.90
2019-05-14T06:59:39.698Z,2.87
2019-05-14T07:02:23.283Z,2.77
2019-05-14T07:05:21.251Z,2.63
2019-05-14T07:07:59.845Z,2.50
2019-05-14T07:10:29.624Z,2.67
2019-05-14T07:13:05.138Z,2.57
2019-05-14T07:15:48.990Z,2.53
2019-05-14T07:18:45.203Z,2.73
2019-05-14T07:20:59.559Z,2.33
2019-05-14T07:23:29.375Z,2.27
2019-05-14T07:25:59.047Z,2.67
2019-05-14T07:28:29.152Z,2.60
2019-05-14T07:31:01.095Z,3.13
2019-05-14T07:33:34.236Z,2.30
2019-05-14T07:36:03.582Z,2.90
2019-05-14T07:38:34.234Z,2.50
2019-05-14T07:41:04.219Z,2.30
2019-05-14T07:44:11.614Z,3.17
2019-05-14T07:46:40.527Z,2.80
2019-05-14T07:49:11.936Z,3.43
2019-05-14T07:51:42.339Z,2.50
2019-05-14T07:54:12.647Z,2.50
2019-05-14T07:56:42.016Z,2.47
2019-05-14T07:59:11.414Z,1.90
2019-05-14T08:01:41.044Z,2.27
2019-05-14T08:04:11.857Z,2.10
2019-05-14T08:06:41.528Z,2.33
2019-05-14T08:09:11.097Z,2.90
2019-05-14T08:11:40.468Z,2.53
2019-05-14T08:14:10.887Z,1.90
2019-05-14T08:16:40.603Z,2.07
2019-05-14T08:19:24.125Z,1.97
2019-05-14T08:21:43.774Z,2.30
2019-05-14T08:24:15.299Z,2.50
2019-05-14T08:26:44.516Z,2.00
2019-05-14T08:29:14.946Z,1.77
2019-05-14T08:31:44.305Z,1.50
2019-05-14T08:34:14.815Z,1.77
2019-05-14T08:36:44.107Z,2.10
2019-05-14T08:39:14.108Z,1.83
2019-05-14T08:41:55.780Z,1.53
2019-05-14T08:44:19.803Z,1.90
2019-05-14T08:46:49.375Z,1.90
2019-05-14T08:49:20.807Z,1.70
2019-05-14T08:51:50.183Z,1.67
2019-05-14T08:54:19.900Z,1.50
2019-05-14T08:56:49.453Z,1.50
2019-05-14T08:59:19.706Z,1.83
2019-05-14T09:02:05.192Z,1.57
2019-05-14T09:04:30.342Z,2.77
2019-05-14T09:06:58.401Z,2.07
2019-05-14T09:09:34.009Z,1.80
2019-05-14T09:12:05.602Z,1.73
2019-05-14T09:14:38.699Z,1.80
2019-05-14T09:17:10.759Z,2.10
2019-05-14T09:19:57.274Z,2.00
2019-05-14T09:22:21.483Z,1.47
2019-05-14T09:25:00.122Z,1.80
2019-05-14T09:27:45.895Z,1.60
2019-05-14T09:30:20.455Z,1.60
2019-05-14T09:32:51.187Z,1.43
2019-05-14T09:35:21.651Z,1.73
2019-05-14T09:37:55.774Z,1.80
2019-05-14T09:40:28.880Z,1.67
2019-05-14T09:43:01.624Z,1.57
2019-05-14T09:45:40.531Z,1.57
2019-05-14T09:48:15.409Z,1.27
2019-05-14T09:50:49.721Z,1.77
2019-05-14T09:53:21.160Z,1.20
2019-05-14T09:55:52.003Z,1.50
2019-05-14T09:58:21.757Z,1.43
2019-05-14T10:00:54.178Z,1.93
2019-05-14T10:03:24.547Z,1.50
2019-05-14T10:05:54.296Z,1.70
2019-05-14T10:08:51.913Z,2.07
2019-05-14T10:11:21.618Z,1.90
2019-05-14T10:13:52.293Z,1.67
2019-05-14T10:16:58.164Z,1.40
2019-05-14T10:19:30.472Z,1.73
2019-05-14T10:22:00.204Z,1.50
2019-05-14T10:24:32.975Z,1.80
2019-05-14T10:27:03.355Z,1.67
2019-05-14T10:29:42.144Z,1.60
2019-05-14T10:32:19.226Z,1.80
2019-05-14T10:34:53.359Z,1.67
2019-05-14T10:37:22.639Z,1.80
2019-05-14T10:39:52.318Z,1.67
2019-05-14T10:42:23.099Z,1.40
2019-05-14T10:44:52.347Z,1.47
2019-05-14T10:47:22.131Z,1.50
2019-05-14T10:49:51.781Z,1.27
2019-05-14T10:52:21.674Z,1.57
2019-05-14T10:54:55.792Z,1.20
2019-05-14T10:57:24.511Z,1.50
2019-05-14T10:59:55.804Z,1.70
2019-05-14T11:02:29.188Z,1.90
2019-05-14T11:05:02.108Z,1.80
2019-05-14T11:07:35.313Z,1.40
2019-05-14T11:10:09.320Z,1.60
2019-05-14T11:12:39.781Z,1.73
2019-05-14T11:15:09.695Z,1.50
2019-05-14T11:17:40.679Z,3.07
2019-05-14T11:20:42.680Z,3.60
2019-05-14T11:24:04.708Z,2.10
2019-05-14T11:26:39.864Z,2.27
2019-05-14T11:29:09.359Z,1.50
2019-05-14T11:31:39.363Z,1.83
2019-05-14T11:34:09.062Z,1.40
2019-05-14T11:36:40.698Z,1.30
2019-05-14T11:39:11.991Z,1.57
2019-05-14T11:41:41.492Z,1.63
2019-05-14T11:44:25.165Z,2.10
2019-05-14T11:46:58.185Z,1.70
2019-05-14T11:49:36.979Z,1.23
2019-05-14T11:52:11.704Z,1.60
2019-05-14T11:54:40.912Z,1.40
2019-05-14T11:57:19.398Z,2.07
2019-05-14T11:59:50.800Z,1.30
2019-05-14T12:05:58.455Z,1.23
2019-05-14T12:08:28.884Z,1.00
2019-05-14T12:11:03.835Z,1.40
2019-05-14T12:13:35.016Z,1.80
2019-05-14T12:16:08.587Z,1.37
2019-05-14T12:18:41.955Z,1.47
2019-05-14T12:21:12.930Z,1.40
2019-05-14T12:23:43.730Z,1.00
2019-05-14T12:26:13.306Z,0.83
2019-05-14T12:28:56.076Z,1.20
2019-05-14T12:35:30.505Z,1.20
2019-05-14T12:38:41.721Z,1.10
2019-05-14T12:41:33.655Z,1.40
2019-05-14T12:44:19.583Z,1.60
2019-05-14T12:54:19.714Z,1.17
2019-05-14T13:00:48.479Z,1.47
2019-05-14T13:11:41.273Z,1.00
2019-05-14T13:15:08.542Z,1.00
2019-05-14T13:17:42.416Z,1.10
2019-05-14T13:21:23.720Z,1.43
2019-05-14T13:31:50.063Z,1.20
2019-05-14T13:37:55.487Z,1.20
2019-05-14T13:40:45.048Z,0.90
2019-05-14T13:43:19.188Z,1.07
2019-05-14T13:45:49.497Z,1.27
2019-05-14T13:48:42.738Z,1.30
2019-05-14T13:55:30.832Z,0.77
2019-05-14T13:58:09.787Z,0.97
2019-05-14T14:00:39.188Z,0.70
2019-05-14T14:03:12.303Z,0.80
2019-05-14T14:05:42.665Z,1.00
2019-05-14T14:08:21.447Z,0.83
2019-05-14T14:11:15.926Z,0.90
2019-05-14T14:28:09.905Z,0.80
2019-05-14T14:30:39.413Z,0.90
2019-05-14T14:33:09.001Z,0.80
2019-05-14T14:35:41.337Z,0.90
2019-05-14T14:38:12.371Z,0.80
2019-05-14T14:40:41.785Z,0.70
2019-05-14T14:43:20.533Z,0.60
2019-05-14T14:46:22.119Z,0.90
2019-05-14T14:48:51.663Z,0.70
2019-05-14T14:51:23.933Z,0.80
2019-05-14T14:54:00.761Z,0.70
2019-05-14T14:56:33.561Z,0.83
2019-05-14T14:59:03.002Z,0.70
2019-05-14T15:01:39.838Z,0.70
2019-05-14T15:04:13.641Z,0.80
2019-05-14T15:06:43.591Z,0.63
2019-05-14T15:09:17.476Z,0.90
2019-05-14T15:11:48.916Z,1.03
2019-05-14T15:14:20.269Z,1.03
2019-05-14T15:16:49.879Z,1.17
2019-05-14T15:19:23.118Z,0.70
2019-05-14T15:21:52.871Z,1.07
2019-05-14T15:24:24.238Z,1.00
2019-05-14T15:26:53.565Z,0.70
2019-05-14T15:29:29.159Z,1.00
2019-05-14T15:32:01.847Z,1.00
2019-05-14T15:35:01.421Z,0.80
2019-05-14T15:41:49.872Z,1.20
2019-05-14T15:44:47.543Z,1.07
2019-05-14T15:52:14.645Z,0.80
2019-05-14T15:55:49.092Z,1.00
2019-05-14T15:58:30.274Z,0.80
2019-05-14T16:01:01.819Z,0.97
2019-05-14T16:03:32.255Z,0.87
2019-05-14T16:06:04.016Z,0.93
2019-05-14T16:08:35.652Z,0.80
2019-05-14T16:11:07.469Z,0.77
2019-05-14T16:13:39.808Z,0.80
2019-05-14T16:16:10.843Z,0.90
2019-05-14T16:18:47.977Z,0.80
2019-05-14T16:21:18.465Z,0.70
2019-05-14T16:24:08.076Z,0.83
2019-05-14T16:26:44.796Z,0.83
2019-05-14T16:29:19.662Z,0.80
2019-05-14T16:31:50.867Z,0.77
2019-05-14T16:45:21.450Z,0.80
2019-05-14T16:48:33.275Z,0.90
2019-05-14T16:54:12.043Z,0.80
2019-05-14T16:56:44.841Z,0.80
2019-05-14T16:59:14.455Z,0.97
2019-05-14T17:01:44.796Z,0.80
2019-05-14T17:04:14.957Z,0.93
2019-05-14T17:06:45.135Z,0.87
2019-05-14T17:09:14.532Z,0.90
2019-05-14T17:11:59.012Z,0.70
2019-05-14T17:14:32.226Z,0.97
2019-05-14T17:17:02.324Z,0.83
2019-05-14T17:19:33.920Z,0.90
2019-05-14T17:22:23.322Z,0.60
2019-05-14T17:24:36.373Z,0.60
2019-05-14T17:27:06.063Z,0.60
2019-05-14T17:29:35.446Z,0.73
2019-05-14T17:32:05.398Z,1.20
2019-05-14T17:34:34.950Z,0.93
2019-05-14T17:37:08.708Z,0.80
2019-05-14T17:39:38.742Z,0.80
2019-05-14T17:42:11.647Z,0.60
2019-05-14T17:44:41.879Z,0.83
2019-05-14T17:47:12.107Z,0.90
2019-05-14T17:49:42.483Z,0.80
2019-05-14T17:52:11.863Z,1.03
2019-05-14T17:54:42.867Z,0.60
2019-05-14T17:57:15.066Z,0.70
2019-05-14T17:59:44.762Z,0.70
2019-05-14T18:02:14.542Z,0.80
2019-05-14T18:04:44.236Z,0.80
2019-05-14T18:07:13.944Z,0.90
2019-05-14T18:09:44.002Z,0.90
2019-05-14T18:12:13.376Z,0.60
2019-05-14T18:14:42.690Z,0.90
2019-05-14T18:17:14.711Z,0.93
2019-05-14T18:19:43.957Z,1.00
2019-05-14T18:22:14.040Z,1.03
2019-05-14T18:24:48.548Z,0.70
2019-05-14T18:27:19.473Z,0.70
2019-05-14T18:29:49.152Z,0.87
2019-05-14T18:32:19.012Z,0.87
2019-05-14T18:34:49.284Z,0.70
2019-05-14T18:37:19.874Z,0.90
2019-05-14T18:39:49.653Z,0.83
2019-05-14T18:42:24.902Z,0.63
2019-05-14T18:44:54.225Z,0.80
2019-05-14T18:47:28.538Z,0.80
2019-05-14T18:49:59.514Z,0.90
2019-05-14T18:52:29.617Z,0.67
2019-05-14T18:54:59.288Z,0.87
2019-05-14T18:57:28.946Z,0.90
2019-05-14T18:59:58.313Z,0.80
2019-05-14T19:02:29.242Z,0.77
2019-05-14T19:04:59.230Z,0.83
2019-05-14T19:07:28.933Z,0.73
2019-05-14T19:10:02.761Z,0.90
2019-05-14T19:12:31.394Z,0.80
2019-05-14T19:15:03.283Z,1.03
2019-05-14T19:17:35.305Z,1.00
2019-05-14T19:20:08.488Z,1.00
2019-05-14T19:22:39.623Z,0.90
2019-05-14T19:25:09.834Z,0.80
2019-05-14T19:27:39.192Z,1.17
2019-05-14T19:30:10.513Z,0.97
2019-05-14T19:32:39.867Z,1.00
2019-05-14T19:35:09.192Z,1.00
2019-05-14T19:37:39.370Z,1.03
2019-05-14T19:40:11.950Z,2.03
2019-05-14T19:42:41.298Z,1.27
2019-05-14T19:45:50.401Z,1.03
2019-05-14T19:48:33.668Z,1.00
2019-05-14T19:51:21.592Z,2.50
2019-05-14T19:54:19.183Z,1.60
2019-05-14T19:57:10.145Z,0.73
2019-05-14T19:59:43.608Z,1.57
2019-05-14T20:02:20.070Z,0.90
2019-05-14T20:05:05.304Z,0.83
2019-05-14T20:07:38.355Z,1.50
2019-05-14T20:10:12.430Z,1.10
2019-05-14T20:12:44.785Z,1.40
2019-05-14T20:15:21.113Z,1.50
2019-05-14T20:17:54.950Z,1.00
2019-05-14T20:20:25.758Z,0.70
2019-05-14T20:23:02.746Z,0.70
2019-05-14T20:25:32.657Z,1.07
2019-05-14T20:28:03.940Z,1.17
2019-05-14T20:30:42.144Z,0.70
2019-05-14T20:33:12.011Z,1.00
2019-05-14T20:35:45.067Z,0.80
2019-05-14T20:38:15.726Z,1.30
2019-05-14T20:40:48.681Z,1.00
2019-05-14T20:43:18.855Z,0.90
2019-05-14T20:45:54.822Z,0.93
2019-05-14T20:48:33.021Z,1.13
2019-05-14T20:51:09.018Z,1.00
2019-05-14T20:53:48.711Z,1.10
2019-05-14T20:56:20.592Z,1.03
2019-05-14T20:58:50.483Z,1.10
2019-05-14T21:01:29.174Z,0.93
2019-05-14T21:03:59.254Z,1.13
2019-05-14T21:06:29.570Z,0.93
2019-05-14T21:09:01.326Z,0.90
2019-05-14T21:11:30.683Z,1.00
2019-05-14T21:14:00.262Z,1.20
2019-05-14T21:16:30.546Z,0.97
2019-05-14T21:19:01.206Z,1.30
2019-05-14T21:21:30.836Z,1.10
2019-05-14T21:24:04.823Z,1.73
2019-05-14T21:26:40.301Z,1.07
2019-05-14T21:29:12.813Z,1.10
2019-05-14T21:31:43.063Z,1.27
2019-05-14T21:34:16.585Z,0.83
2019-05-14T21:36:50.793Z,1.00
2019-05-14T21:39:25.321Z,1.03
2019-05-14T21:41:58.452Z,1.10
2019-05-14T21:44:42.626Z,1.10
2019-05-14T21:47:13.220Z,1.00
2019-05-14T21:50:01.408Z,0.80
2019-05-14T21:52:33.718Z,1.20
2019-05-14T21:55:03.848Z,0.70
2019-05-14T21:57:38.070Z,0.80
2019-05-14T22:00:18.584Z,0.93
2019-05-14T22:02:49.147Z,0.83
2019-05-14T22:05:19.882Z,0.83
2019-05-14T22:07:58.487Z,0.80
2019-05-14T22:10:29.560Z,1.10
2019-05-14T22:13:01.565Z,1.00
2019-05-14T22:15:33.401Z,2.17
2019-05-14T22:18:20.528Z,2.37
2019-05-14T22:20:48.850Z,1.13
2019-05-14T22:23:21.195Z,1.70
2019-05-14T22:25:50.282Z,0.90
2019-05-14T22:28:20.270Z,1.60
2019-05-14T22:30:51.218Z,1.17
2019-05-14T22:33:24.344Z,1.13
2019-05-14T22:35:54.281Z,1.10
2019-05-14T22:38:40.762Z,1.20
2019-05-14T22:41:11.570Z,1.10
2019-05-14T22:43:41.474Z,0.93
2019-05-14T22:46:13.760Z,1.27
2019-05-14T22:48:43.083Z,1.20
2019-05-14T22:51:12.462Z,1.40
2019-05-14T22:53:41.784Z,1.10
2019-05-14T22:56:12.914Z,0.90
2019-05-14T22:58:43.533Z,1.40
2019-05-14T23:01:15.407Z,1.27
2019-05-14T23:03:45.206Z,1.10
2019-05-14T23:06:14.553Z,1.23
2019-05-14T23:08:45.290Z,0.90
2019-05-14T23:11:19.688Z,1.27
2019-05-14T23:13:49.247Z,0.93
2019-05-14T23:16:30.982Z,1.40
2019-05-14T23:18:54.893Z,1.20
2019-05-14T23:21:24.234Z,1.10
2019-05-14T23:23:53.883Z,0.90
2019-05-14T23:26:23.531Z,1.10
2019-05-14T23:28:53.211Z,1.40
2019-05-14T23:31:22.650Z,0.90
2019-05-14T23:33:52.726Z,1.10
2019-05-14T23:36:22.302Z,1.13
2019-05-14T23:39:00.830Z,1.00
2019-05-14T23:41:30.589Z,1.50
2019-05-14T23:44:00.248Z,1.13
2019-05-14T23:46:30.160Z,1.27
2019-05-14T23:48:59.821Z,1.20
2019-05-14T23:51:38.386Z,1.10
2019-05-14T23:54:12.653Z,1.33
2019-05-14T23:56:44.234Z,1.13
2019-05-14T23:59:18.353Z,1.13
